sensor_id;sensor_type;location;lat;lon;timestamp;P1;durP1;ratioP1;P2;durP2;ratioP2
76894;SDS011;65855;42.030;13.078;2023-03-01T00:00:10;3.80;;;1.37;;
76894;SDS011;65855;42.030;13.078;2023-03-01T00:02:35;3.50;;;1.55;;
76894;SDS011;65855;42.030;13.078;2023-03-01T00:05:01;5.55;;;2.80;;
76894;SDS011;65855;42.030;13.078;2023-03-01T00:07:26;11.27;;;5.20;;
76894;SDS011;65855;42.030;13.078;2023-03-01T00:09:52;9.73;;;2.87;;
76894;SDS011;65855;42.030;13.078;2023-03-01T00:12:17;4.47;;;1.70;;
76894;SDS011;65855;42.030;13.078;2023-03-01T00:14:42;5.57;;;2.67;;
76894;SDS011;65855;42.030;13.078;2023-03-01T00:17:07;6.40;;;2.53;;
76894;SDS011;65855;42.030;13.078;2023-03-01T00:19:33;4.38;;;2.45;;
76894;SDS011;65855;42.030;13.078;2023-03-01T00:21:58;5.90;;;0.98;;
76894;SDS011;65855;42.030;13.078;2023-03-01T00:24:23;2.53;;;1.37;;
76894;SDS011;65855;42.030;13.078;2023-03-01T00:26:48;3.17;;;1.50;;
76894;SDS011;65855;42.030;13.078;2023-03-01T00:29:17;3.65;;;1.45;;
76894;SDS011;65855;42.030;13.078;2023-03-01T00:31:42;6.77;;;1.17;;
76894;SDS011;65855;42.030;13.078;2023-03-01T00:34:09;16.00;;;7.63;;
76894;SDS011;65855;42.030;13.078;2023-03-01T00:36:35;5.38;;;2.45;;
76894;SDS011;65855;42.030;13.078;2023-03-01T00:39:00;9.82;;;5.13;;
76894;SDS011;65855;42.030;13.078;2023-03-01T00:41:26;6.88;;;2.42;;
76894;SDS011;65855;42.030;13.078;2023-03-01T00:43:52;10.63;;;3.70;;
76894;SDS011;65855;42.030;13.078;2023-03-01T00:46:18;6.80;;;3.35;;
76894;SDS011;65855;42.030;13.078;2023-03-01T00:48:44;8.02;;;4.97;;
76894;SDS011;65855;42.030;13.078;2023-03-01T00:53:35;5.97;;;1.87;;
76894;SDS011;65855;42.030;13.078;2023-03-01T00:56:01;4.97;;;1.75;;
76894;SDS011;65855;42.030;13.078;2023-03-01T00:58:27;4.93;;;1.73;;
76894;SDS011;65855;42.030;13.078;2023-03-01T01:00:52;5.53;;;2.13;;
76894;SDS011;65855;42.030;13.078;2023-03-01T01:03:18;4.37;;;1.80;;
76894;SDS011;65855;42.030;13.078;2023-03-01T01:05:43;4.72;;;1.65;;
76894;SDS011;65855;42.030;13.078;2023-03-01T01:08:08;5.90;;;1.90;;
76894;SDS011;65855;42.030;13.078;2023-03-01T01:10:34;3.80;;;1.27;;
76894;SDS011;65855;42.030;13.078;2023-03-01T01:12:59;3.45;;;1.25;;
76894;SDS011;65855;42.030;13.078;2023-03-01T01:15:24;5.10;;;1.40;;
76894;SDS011;65855;42.030;13.078;2023-03-01T01:17:50;3.58;;;1.42;;
76894;SDS011;65855;42.030;13.078;2023-03-01T01:20:15;3.63;;;1.33;;
76894;SDS011;65855;42.030;13.078;2023-03-01T01:22:40;4.95;;;2.55;;
76894;SDS011;65855;42.030;13.078;2023-03-01T01:25:06;6.00;;;1.90;;
76894;SDS011;65855;42.030;13.078;2023-03-01T01:27:31;4.82;;;1.92;;
76894;SDS011;65855;42.030;13.078;2023-03-01T01:29:56;4.85;;;1.30;;
76894;SDS011;65855;42.030;13.078;2023-03-01T01:32:22;3.70;;;1.67;;
76894;SDS011;65855;42.030;13.078;2023-03-01T01:34:47;2.70;;;1.08;;
76894;SDS011;65855;42.030;13.078;2023-03-01T01:37:12;3.72;;;1.40;;
76894;SDS011;65855;42.030;13.078;2023-03-01T01:39:38;3.43;;;1.23;;
76894;SDS011;65855;42.030;13.078;2023-03-01T01:42:03;3.33;;;1.60;;
76894;SDS011;65855;42.030;13.078;2023-03-01T01:44:29;2.65;;;1.38;;
76894;SDS011;65855;42.030;13.078;2023-03-01T01:49:36;4.20;;;1.33;;
76894;SDS011;65855;42.030;13.078;2023-03-01T01:52:13;4.78;;;1.77;;
76894;SDS011;65855;42.030;13.078;2023-03-01T01:57:06;6.10;;;2.20;;
76894;SDS011;65855;42.030;13.078;2023-03-01T01:59:32;4.80;;;1.83;;
76894;SDS011;65855;42.030;13.078;2023-03-01T02:01:59;6.40;;;3.45;;
76894;SDS011;65855;42.030;13.078;2023-03-01T02:04:26;5.72;;;2.20;;
76894;SDS011;65855;42.030;13.078;2023-03-01T02:06:54;4.38;;;2.08;;
76894;SDS011;65855;42.030;13.078;2023-03-01T02:09:20;4.25;;;2.13;;
76894;SDS011;65855;42.030;13.078;2023-03-01T02:11:47;5.72;;;2.38;;
76894;SDS011;65855;42.030;13.078;2023-03-01T02:14:12;5.75;;;2.47;;
76894;SDS011;65855;42.030;13.078;2023-03-01T02:16:39;6.82;;;2.70;;
76894;SDS011;65855;42.030;13.078;2023-03-01T02:19:05;6.20;;;2.35;;
76894;SDS011;65855;42.030;13.078;2023-03-01T02:24:19;6.05;;;2.60;;
76894;SDS011;65855;42.030;13.078;2023-03-01T02:26:48;6.55;;;2.60;;
76894;SDS011;65855;42.030;13.078;2023-03-01T02:29:15;4.95;;;2.45;;
76894;SDS011;65855;42.030;13.078;2023-03-01T02:31:40;3.88;;;1.77;;
76894;SDS011;65855;42.030;13.078;2023-03-01T02:34:13;4.32;;;2.40;;
76894;SDS011;65855;42.030;13.078;2023-03-01T02:36:40;4.10;;;1.95;;
76894;SDS011;65855;42.030;13.078;2023-03-01T02:39:08;3.63;;;2.00;;
76894;SDS011;65855;42.030;13.078;2023-03-01T02:41:39;2.78;;;1.25;;
76894;SDS011;65855;42.030;13.078;2023-03-01T02:44:05;4.50;;;1.95;;
76894;SDS011;65855;42.030;13.078;2023-03-01T02:46:31;4.53;;;1.73;;
76894;SDS011;65855;42.030;13.078;2023-03-01T02:48:57;6.47;;;3.03;;
76894;SDS011;65855;42.030;13.078;2023-03-01T02:56:32;10.82;;;6.80;;
76894;SDS011;65855;42.030;13.078;2023-03-01T02:58:57;8.90;;;4.88;;
76894;SDS011;65855;42.030;13.078;2023-03-01T03:01:25;8.50;;;5.22;;
76894;SDS011;65855;42.030;13.078;2023-03-01T03:04:01;3.47;;;0.98;;
76894;SDS011;65855;42.030;13.078;2023-03-01T03:06:26;2.60;;;1.20;;
76894;SDS011;65855;42.030;13.078;2023-03-01T03:08:51;3.27;;;1.63;;
76894;SDS011;65855;42.030;13.078;2023-03-01T03:11:17;2.83;;;1.17;;
76894;SDS011;65855;42.030;13.078;2023-03-01T03:13:42;2.30;;;1.57;;
76894;SDS011;65855;42.030;13.078;2023-03-01T03:16:13;1.98;;;1.13;;
76894;SDS011;65855;42.030;13.078;2023-03-01T03:18:38;4.13;;;1.80;;
76894;SDS011;65855;42.030;13.078;2023-03-01T03:21:03;2.57;;;1.30;;
76894;SDS011;65855;42.030;13.078;2023-03-01T03:23:32;3.25;;;1.50;;
76894;SDS011;65855;42.030;13.078;2023-03-01T03:25:57;2.33;;;1.30;;
76894;SDS011;65855;42.030;13.078;2023-03-01T03:28:22;4.20;;;1.80;;
76894;SDS011;65855;42.030;13.078;2023-03-01T03:30:48;4.17;;;1.10;;
76894;SDS011;65855;42.030;13.078;2023-03-01T03:33:14;3.15;;;1.70;;
76894;SDS011;65855;42.030;13.078;2023-03-01T03:35:41;2.80;;;1.63;;
76894;SDS011;65855;42.030;13.078;2023-03-01T03:38:07;2.33;;;1.15;;
76894;SDS011;65855;42.030;13.078;2023-03-01T03:40:40;2.70;;;1.42;;
76894;SDS011;65855;42.030;13.078;2023-03-01T03:43:07;3.05;;;1.35;;
76894;SDS011;65855;42.030;13.078;2023-03-01T03:45:33;2.22;;;1.38;;
76894;SDS011;65855;42.030;13.078;2023-03-01T03:47:58;3.10;;;1.17;;
76894;SDS011;65855;42.030;13.078;2023-03-01T03:50:24;2.40;;;1.02;;
76894;SDS011;65855;42.030;13.078;2023-03-01T03:52:49;1.70;;;1.00;;
76894;SDS011;65855;42.030;13.078;2023-03-01T03:55:14;3.27;;;1.43;;
76894;SDS011;65855;42.030;13.078;2023-03-01T03:57:44;3.38;;;1.73;;
76894;SDS011;65855;42.030;13.078;2023-03-01T04:00:10;2.90;;;1.52;;
76894;SDS011;65855;42.030;13.078;2023-03-01T04:02:41;2.42;;;1.00;;
76894;SDS011;65855;42.030;13.078;2023-03-01T04:05:06;2.10;;;1.10;;
76894;SDS011;65855;42.030;13.078;2023-03-01T04:07:33;2.80;;;0.98;;
76894;SDS011;65855;42.030;13.078;2023-03-01T04:09:58;2.80;;;1.63;;
76894;SDS011;65855;42.030;13.078;2023-03-01T04:12:23;2.40;;;1.23;;
76894;SDS011;65855;42.030;13.078;2023-03-01T04:14:49;3.27;;;1.73;;
76894;SDS011;65855;42.030;13.078;2023-03-01T04:17:14;2.87;;;1.37;;
76894;SDS011;65855;42.030;13.078;2023-03-01T04:19:39;2.30;;;1.33;;
76894;SDS011;65855;42.030;13.078;2023-03-01T04:22:04;1.77;;;1.17;;
76894;SDS011;65855;42.030;13.078;2023-03-01T04:24:36;3.78;;;1.90;;
76894;SDS011;65855;42.030;13.078;2023-03-01T04:27:02;2.17;;;1.00;;
76894;SDS011;65855;42.030;13.078;2023-03-01T04:29:27;2.63;;;1.65;;
76894;SDS011;65855;42.030;13.078;2023-03-01T04:31:53;2.10;;;1.20;;
76894;SDS011;65855;42.030;13.078;2023-03-01T04:34:18;2.58;;;1.17;;
76894;SDS011;65855;42.030;13.078;2023-03-01T04:36:43;3.13;;;1.30;;
76894;SDS011;65855;42.030;13.078;2023-03-01T04:39:09;4.10;;;1.70;;
76894;SDS011;65855;42.030;13.078;2023-03-01T04:41:37;2.17;;;0.88;;
76894;SDS011;65855;42.030;13.078;2023-03-01T04:44:04;2.65;;;1.35;;
76894;SDS011;65855;42.030;13.078;2023-03-01T04:46:29;2.72;;;1.35;;
76894;SDS011;65855;42.030;13.078;2023-03-01T04:48:55;2.63;;;1.20;;
76894;SDS011;65855;42.030;13.078;2023-03-01T04:51:20;3.00;;;1.15;;
76894;SDS011;65855;42.030;13.078;2023-03-01T04:53:45;2.35;;;1.00;;
76894;SDS011;65855;42.030;13.078;2023-03-01T04:56:11;2.70;;;1.07;;
76894;SDS011;65855;42.030;13.078;2023-03-01T04:58:36;2.40;;;1.15;;
76894;SDS011;65855;42.030;13.078;2023-03-01T05:01:07;2.38;;;1.45;;
76894;SDS011;65855;42.030;13.078;2023-03-01T05:03:39;1.92;;;0.98;;
76894;SDS011;65855;42.030;13.078;2023-03-01T05:06:05;2.22;;;0.88;;
76894;SDS011;65855;42.030;13.078;2023-03-01T05:08:30;1.53;;;0.80;;
76894;SDS011;65855;42.030;13.078;2023-03-01T05:10:59;2.50;;;1.52;;
76894;SDS011;65855;42.030;13.078;2023-03-01T05:13:24;3.65;;;1.58;;
76894;SDS011;65855;42.030;13.078;2023-03-01T05:15:59;2.83;;;0.87;;
76894;SDS011;65855;42.030;13.078;2023-03-01T05:18:25;4.95;;;2.45;;
76894;SDS011;65855;42.030;13.078;2023-03-01T05:20:51;5.75;;;1.83;;
76894;SDS011;65855;42.030;13.078;2023-03-01T05:23:17;6.43;;;2.25;;
76894;SDS011;65855;42.030;13.078;2023-03-01T05:25:43;3.65;;;1.75;;
76894;SDS011;65855;42.030;13.078;2023-03-01T05:28:10;5.63;;;2.13;;
76894;SDS011;65855;42.030;13.078;2023-03-01T05:30:36;3.03;;;1.33;;
76894;SDS011;65855;42.030;13.078;2023-03-01T05:33:01;3.00;;;1.50;;
76894;SDS011;65855;42.030;13.078;2023-03-01T05:35:27;3.65;;;1.45;;
76894;SDS011;65855;42.030;13.078;2023-03-01T05:37:52;3.33;;;1.55;;
76894;SDS011;65855;42.030;13.078;2023-03-01T05:40:18;4.22;;;2.60;;
76894;SDS011;65855;42.030;13.078;2023-03-01T05:42:45;2.20;;;1.02;;
76894;SDS011;65855;42.030;13.078;2023-03-01T05:45:11;2.47;;;1.45;;
76894;SDS011;65855;42.030;13.078;2023-03-01T05:47:37;2.45;;;1.27;;
76894;SDS011;65855;42.030;13.078;2023-03-01T05:50:03;4.10;;;1.92;;
76894;SDS011;65855;42.030;13.078;2023-03-01T05:52:29;4.28;;;2.50;;
76894;SDS011;65855;42.030;13.078;2023-03-01T05:54:54;3.38;;;1.30;;
76894;SDS011;65855;42.030;13.078;2023-03-01T05:57:20;4.97;;;2.30;;
76894;SDS011;65855;42.030;13.078;2023-03-01T05:59:45;3.27;;;1.20;;
76894;SDS011;65855;42.030;13.078;2023-03-01T06:02:10;3.03;;;1.73;;
76894;SDS011;65855;42.030;13.078;2023-03-01T06:04:36;3.50;;;1.40;;
76894;SDS011;65855;42.030;13.078;2023-03-01T06:07:01;5.30;;;2.17;;
76894;SDS011;65855;42.030;13.078;2023-03-01T06:09:26;4.67;;;1.90;;
76894;SDS011;65855;42.030;13.078;2023-03-01T06:11:51;3.93;;;1.23;;
76894;SDS011;65855;42.030;13.078;2023-03-01T06:14:17;4.73;;;1.73;;
76894;SDS011;65855;42.030;13.078;2023-03-01T06:16:42;5.23;;;1.93;;
76894;SDS011;65855;42.030;13.078;2023-03-01T06:19:07;4.53;;;1.87;;
76894;SDS011;65855;42.030;13.078;2023-03-01T06:21:32;5.70;;;2.17;;
76894;SDS011;65855;42.030;13.078;2023-03-01T06:23:58;5.87;;;2.20;;
76894;SDS011;65855;42.030;13.078;2023-03-01T06:26:23;5.77;;;2.20;;
76894;SDS011;65855;42.030;13.078;2023-03-01T06:28:48;8.73;;;2.13;;
76894;SDS011;65855;42.030;13.078;2023-03-01T06:31:13;7.90;;;3.13;;
76894;SDS011;65855;42.030;13.078;2023-03-01T06:33:39;6.97;;;2.63;;
76894;SDS011;65855;42.030;13.078;2023-03-01T06:36:04;8.80;;;3.42;;
76894;SDS011;65855;42.030;13.078;2023-03-01T06:38:30;10.07;;;4.07;;
76894;SDS011;65855;42.030;13.078;2023-03-01T06:40:55;7.57;;;3.13;;
76894;SDS011;65855;42.030;13.078;2023-03-01T06:43:21;13.27;;;6.25;;
76894;SDS011;65855;42.030;13.078;2023-03-01T06:45:46;12.10;;;8.05;;
76894;SDS011;65855;42.030;13.078;2023-03-01T06:48:12;3.80;;;1.92;;
76894;SDS011;65855;42.030;13.078;2023-03-01T06:50:37;3.37;;;1.63;;
76894;SDS011;65855;42.030;13.078;2023-03-01T06:53:03;2.88;;;1.55;;
76894;SDS011;65855;42.030;13.078;2023-03-01T06:55:28;4.47;;;2.17;;
76894;SDS011;65855;42.030;13.078;2023-03-01T06:57:57;4.57;;;2.63;;
76894;SDS011;65855;42.030;13.078;2023-03-01T07:00:23;2.90;;;1.48;;
76894;SDS011;65855;42.030;13.078;2023-03-01T07:02:49;2.97;;;1.45;;
76894;SDS011;65855;42.030;13.078;2023-03-01T07:05:14;2.77;;;1.50;;
76894;SDS011;65855;42.030;13.078;2023-03-01T07:07:39;2.60;;;1.27;;
76894;SDS011;65855;42.030;13.078;2023-03-01T07:10:05;2.42;;;1.00;;
76894;SDS011;65855;42.030;13.078;2023-03-01T07:12:30;3.88;;;1.48;;
76894;SDS011;65855;42.030;13.078;2023-03-01T07:14:56;4.60;;;2.83;;
76894;SDS011;65855;42.030;13.078;2023-03-01T07:17:21;3.43;;;2.03;;
76894;SDS011;65855;42.030;13.078;2023-03-01T07:19:46;7.00;;;3.33;;
76894;SDS011;65855;42.030;13.078;2023-03-01T07:22:11;2.53;;;1.17;;
76894;SDS011;65855;42.030;13.078;2023-03-01T07:24:37;3.93;;;2.03;;
76894;SDS011;65855;42.030;13.078;2023-03-01T07:27:02;3.57;;;1.50;;
76894;SDS011;65855;42.030;13.078;2023-03-01T07:29:27;3.70;;;1.33;;
76894;SDS011;65855;42.030;13.078;2023-03-01T07:31:53;3.05;;;1.55;;
76894;SDS011;65855;42.030;13.078;2023-03-01T07:34:19;2.28;;;0.98;;
76894;SDS011;65855;42.030;13.078;2023-03-01T07:36:44;2.25;;;1.02;;
76894;SDS011;65855;42.030;13.078;2023-03-01T07:39:10;3.15;;;1.85;;
76894;SDS011;65855;42.030;13.078;2023-03-01T07:41:35;2.05;;;0.88;;
76894;SDS011;65855;42.030;13.078;2023-03-01T07:44:01;2.67;;;1.65;;
76894;SDS011;65855;42.030;13.078;2023-03-01T07:46:26;2.30;;;1.17;;
76894;SDS011;65855;42.030;13.078;2023-03-01T07:48:51;2.92;;;1.65;;
76894;SDS011;65855;42.030;13.078;2023-03-01T07:51:16;3.23;;;1.07;;
76894;SDS011;65855;42.030;13.078;2023-03-01T07:53:42;1.73;;;0.67;;
76894;SDS011;65855;42.030;13.078;2023-03-01T07:56:08;3.03;;;1.67;;
76894;SDS011;65855;42.030;13.078;2023-03-01T07:58:34;4.25;;;1.50;;
76894;SDS011;65855;42.030;13.078;2023-03-01T08:01:03;3.97;;;1.63;;
76894;SDS011;65855;42.030;13.078;2023-03-01T08:03:29;2.30;;;1.23;;
76894;SDS011;65855;42.030;13.078;2023-03-01T08:05:54;5.32;;;2.33;;
76894;SDS011;65855;42.030;13.078;2023-03-01T08:08:19;5.60;;;1.70;;
76894;SDS011;65855;42.030;13.078;2023-03-01T08:10:45;4.07;;;1.43;;
76894;SDS011;65855;42.030;13.078;2023-03-01T08:13:10;2.53;;;1.63;;
76894;SDS011;65855;42.030;13.078;2023-03-01T08:15:35;2.77;;;1.37;;
76894;SDS011;65855;42.030;13.078;2023-03-01T08:18:01;2.70;;;1.13;;
76894;SDS011;65855;42.030;13.078;2023-03-01T08:20:26;3.47;;;1.33;;
76894;SDS011;65855;42.030;13.078;2023-03-01T08:22:51;3.08;;;1.20;;
76894;SDS011;65855;42.030;13.078;2023-03-01T08:25:17;2.80;;;1.60;;
76894;SDS011;65855;42.030;13.078;2023-03-01T08:27:42;3.35;;;1.40;;
76894;SDS011;65855;42.030;13.078;2023-03-01T08:30:07;4.07;;;1.13;;
76894;SDS011;65855;42.030;13.078;2023-03-01T08:32:37;2.72;;;0.73;;
76894;SDS011;65855;42.030;13.078;2023-03-01T08:35:02;2.92;;;1.10;;
76894;SDS011;65855;42.030;13.078;2023-03-01T08:37:28;4.38;;;1.00;;
76894;SDS011;65855;42.030;13.078;2023-03-01T08:39:56;3.78;;;1.38;;
76894;SDS011;65855;42.030;13.078;2023-03-01T08:42:21;4.22;;;2.03;;
76894;SDS011;65855;42.030;13.078;2023-03-01T08:44:46;4.72;;;2.45;;
76894;SDS011;65855;42.030;13.078;2023-03-01T08:47:11;3.67;;;1.30;;
76894;SDS011;65855;42.030;13.078;2023-03-01T08:49:37;2.87;;;1.17;;
76894;SDS011;65855;42.030;13.078;2023-03-01T08:52:02;3.30;;;1.52;;
76894;SDS011;65855;42.030;13.078;2023-03-01T08:54:27;2.75;;;1.13;;
76894;SDS011;65855;42.030;13.078;2023-03-01T08:56:53;3.08;;;1.35;;
76894;SDS011;65855;42.030;13.078;2023-03-01T08:59:19;2.70;;;1.20;;
76894;SDS011;65855;42.030;13.078;2023-03-01T09:01:44;2.25;;;1.15;;
76894;SDS011;65855;42.030;13.078;2023-03-01T09:04:10;1.92;;;1.15;;
76894;SDS011;65855;42.030;13.078;2023-03-01T09:06:36;3.03;;;1.13;;
76894;SDS011;65855;42.030;13.078;2023-03-01T09:09:02;3.47;;;1.40;;
76894;SDS011;65855;42.030;13.078;2023-03-01T09:11:28;1.95;;;1.10;;
76894;SDS011;65855;42.030;13.078;2023-03-01T09:13:54;2.33;;;0.60;;
76894;SDS011;65855;42.030;13.078;2023-03-01T09:16:20;3.97;;;1.00;;
76894;SDS011;65855;42.030;13.078;2023-03-01T09:18:48;1.77;;;0.90;;
76894;SDS011;65855;42.030;13.078;2023-03-01T09:21:14;2.38;;;0.82;;
76894;SDS011;65855;42.030;13.078;2023-03-01T09:23:40;3.38;;;1.17;;
76894;SDS011;65855;42.030;13.078;2023-03-01T09:26:06;3.17;;;1.10;;
76894;SDS011;65855;42.030;13.078;2023-03-01T09:28:33;2.15;;;1.02;;
76894;SDS011;65855;42.030;13.078;2023-03-01T09:30:59;2.20;;;0.90;;
76894;SDS011;65855;42.030;13.078;2023-03-01T09:33:25;2.55;;;0.90;;
76894;SDS011;65855;42.030;13.078;2023-03-01T09:35:55;2.35;;;1.02;;
76894;SDS011;65855;42.030;13.078;2023-03-01T09:38:21;3.90;;;1.10;;
76894;SDS011;65855;42.030;13.078;2023-03-01T09:40:46;3.90;;;0.90;;
76894;SDS011;65855;42.030;13.078;2023-03-01T09:45:49;2.42;;;0.93;;
76894;SDS011;65855;42.030;13.078;2023-03-01T09:48:16;2.78;;;1.13;;
76894;SDS011;65855;42.030;13.078;2023-03-01T09:50:43;3.55;;;1.20;;
76894;SDS011;65855;42.030;13.078;2023-03-01T10:01:02;4.50;;;1.33;;
76894;SDS011;65855;42.030;13.078;2023-03-01T10:03:44;4.15;;;1.10;;
76894;SDS011;65855;42.030;13.078;2023-03-01T10:06:23;32.70;;;11.60;;
76894;SDS011;65855;42.030;13.078;2023-03-01T10:08:58;16.33;;;4.50;;
76894;SDS011;65855;42.030;13.078;2023-03-01T10:11:29;15.52;;;4.70;;
76894;SDS011;65855;42.030;13.078;2023-03-01T10:14:01;5.45;;;1.52;;
76894;SDS011;65855;42.030;13.078;2023-03-01T10:19:03;7.15;;;1.02;;
76894;SDS011;65855;42.030;13.078;2023-03-01T10:21:28;2.28;;;1.27;;
76894;SDS011;65855;42.030;13.078;2023-03-01T10:23:56;5.50;;;1.45;;
76894;SDS011;65855;42.030;13.078;2023-03-01T10:26:43;2.97;;;0.98;;
76894;SDS011;65855;42.030;13.078;2023-03-01T10:29:10;7.15;;;1.38;;
76894;SDS011;65855;42.030;13.078;2023-03-01T10:31:38;4.22;;;1.75;;
76894;SDS011;65855;42.030;13.078;2023-03-01T10:34:37;4.90;;;1.20;;
76894;SDS011;65855;42.030;13.078;2023-03-01T10:36:56;4.93;;;1.27;;
76894;SDS011;65855;42.030;13.078;2023-03-01T10:39:23;5.70;;;1.58;;
76894;SDS011;65855;42.030;13.078;2023-03-01T10:41:59;4.88;;;1.48;;
76894;SDS011;65855;42.030;13.078;2023-03-01T10:47:00;6.03;;;1.25;;
76894;SDS011;65855;42.030;13.078;2023-03-01T10:49:26;6.20;;;1.65;;
76894;SDS011;65855;42.030;13.078;2023-03-01T10:51:51;3.57;;;1.47;;
76894;SDS011;65855;42.030;13.078;2023-03-01T10:54:30;5.95;;;1.33;;
76894;SDS011;65855;42.030;13.078;2023-03-01T10:56:57;5.60;;;1.70;;
76894;SDS011;65855;42.030;13.078;2023-03-01T11:01:49;2.95;;;1.00;;
76894;SDS011;65855;42.030;13.078;2023-03-01T11:04:25;5.28;;;1.75;;
76894;SDS011;65855;42.030;13.078;2023-03-01T11:06:57;3.57;;;1.67;;
76894;SDS011;65855;42.030;13.078;2023-03-01T11:09:23;3.20;;;1.48;;
76894;SDS011;65855;42.030;13.078;2023-03-01T11:11:53;4.65;;;1.85;;
76894;SDS011;65855;42.030;13.078;2023-03-01T11:14:22;4.30;;;1.77;;
76894;SDS011;65855;42.030;13.078;2023-03-01T11:16:49;5.03;;;2.25;;
76894;SDS011;65855;42.030;13.078;2023-03-01T11:19:22;3.85;;;1.95;;
76894;SDS011;65855;42.030;13.078;2023-03-01T11:24:50;4.85;;;2.33;;
76894;SDS011;65855;42.030;13.078;2023-03-01T11:27:28;4.70;;;1.77;;
76894;SDS011;65855;42.030;13.078;2023-03-01T11:29:56;6.25;;;2.80;;
76894;SDS011;65855;42.030;13.078;2023-03-01T11:32:24;5.55;;;2.17;;
76894;SDS011;65855;42.030;13.078;2023-03-01T11:34:54;5.38;;;2.83;;
76894;SDS011;65855;42.030;13.078;2023-03-01T11:42:37;10.82;;;5.00;;
76894;SDS011;65855;42.030;13.078;2023-03-01T11:45:09;5.82;;;3.03;;
76894;SDS011;65855;42.030;13.078;2023-03-01T11:53:13;75.30;;;34.47;;
76894;SDS011;65855;42.030;13.078;2023-03-01T11:58:46;62.65;;;29.65;;
76894;SDS011;65855;42.030;13.078;2023-03-01T12:01:24;46.22;;;24.63;;
76894;SDS011;65855;42.030;13.078;2023-03-01T12:03:54;4.90;;;1.70;;
76894;SDS011;65855;42.030;13.078;2023-03-01T12:09:09;12.52;;;7.80;;
76894;SDS011;65855;42.030;13.078;2023-03-01T12:30:21;2.33;;;0.85;;
76894;SDS011;65855;42.030;13.078;2023-03-01T12:41:28;8.67;;;1.57;;
76894;SDS011;65855;42.030;13.078;2023-03-01T12:43:22;4.60;;;1.42;;
76894;SDS011;65855;42.030;13.078;2023-03-01T12:46:05;3.95;;;1.17;;
76894;SDS011;65855;42.030;13.078;2023-03-01T12:51:05;4.82;;;1.63;;
76894;SDS011;65855;42.030;13.078;2023-03-01T12:53:32;4.75;;;1.88;;
76894;SDS011;65855;42.030;13.078;2023-03-01T12:56:05;3.17;;;1.33;;
76894;SDS011;65855;42.030;13.078;2023-03-01T12:58:32;3.10;;;1.30;;
76894;SDS011;65855;42.030;13.078;2023-03-01T13:08:20;4.28;;;1.90;;
76894;SDS011;65855;42.030;13.078;2023-03-01T13:13:23;3.90;;;1.73;;
76894;SDS011;65855;42.030;13.078;2023-03-01T13:15:49;3.80;;;1.08;;
76894;SDS011;65855;42.030;13.078;2023-03-01T13:23:13;3.57;;;1.13;;
76894;SDS011;65855;42.030;13.078;2023-03-01T13:31:01;4.85;;;1.45;;
76894;SDS011;65855;42.030;13.078;2023-03-01T13:35:53;4.43;;;1.40;;
76894;SDS011;65855;42.030;13.078;2023-03-01T13:41:02;3.67;;;1.33;;
76894;SDS011;65855;42.030;13.078;2023-03-01T13:43:30;4.07;;;1.20;;
76894;SDS011;65855;42.030;13.078;2023-03-01T13:45:55;2.15;;;1.05;;
76894;SDS011;65855;42.030;13.078;2023-03-01T13:48:23;2.38;;;0.93;;
76894;SDS011;65855;42.030;13.078;2023-03-01T13:51:10;3.78;;;0.93;;
76894;SDS011;65855;42.030;13.078;2023-03-01T13:53:35;2.47;;;0.85;;
76894;SDS011;65855;42.030;13.078;2023-03-01T13:56:03;2.97;;;0.90;;
76894;SDS011;65855;42.030;13.078;2023-03-01T13:58:32;3.50;;;1.00;;
76894;SDS011;65855;42.030;13.078;2023-03-01T14:00:59;3.42;;;1.05;;
76894;SDS011;65855;42.030;13.078;2023-03-01T14:03:25;2.67;;;0.80;;
76894;SDS011;65855;42.030;13.078;2023-03-01T14:06:07;4.82;;;1.30;;
76894;SDS011;65855;42.030;13.078;2023-03-01T14:08:34;3.22;;;0.90;;
76894;SDS011;65855;42.030;13.078;2023-03-01T14:16:16;5.90;;;1.80;;
76894;SDS011;65855;42.030;13.078;2023-03-01T14:18:46;3.35;;;1.10;;
76894;SDS011;65855;42.030;13.078;2023-03-01T14:21:14;4.03;;;1.30;;
76894;SDS011;65855;42.030;13.078;2023-03-01T14:23:40;5.47;;;1.50;;
76894;SDS011;65855;42.030;13.078;2023-03-01T14:26:07;3.80;;;1.58;;
76894;SDS011;65855;42.030;13.078;2023-03-01T14:28:33;4.38;;;1.10;;
76894;SDS011;65855;42.030;13.078;2023-03-01T14:31:02;4.43;;;1.50;;
76894;SDS011;65855;42.030;13.078;2023-03-01T14:33:29;3.90;;;1.77;;
76894;SDS011;65855;42.030;13.078;2023-03-01T14:36:10;4.05;;;0.85;;
76894;SDS011;65855;42.030;13.078;2023-03-01T14:41:06;4.13;;;1.55;;
76894;SDS011;65855;42.030;13.078;2023-03-01T14:43:32;2.53;;;0.95;;
76894;SDS011;65855;42.030;13.078;2023-03-01T14:45:58;3.50;;;1.20;;
76894;SDS011;65855;42.030;13.078;2023-03-01T14:48:24;3.42;;;0.98;;
76894;SDS011;65855;42.030;13.078;2023-03-01T14:50:49;6.72;;;2.05;;
76894;SDS011;65855;42.030;13.078;2023-03-01T14:53:16;4.25;;;1.55;;
76894;SDS011;65855;42.030;13.078;2023-03-01T14:55:44;6.55;;;2.83;;
76894;SDS011;65855;42.030;13.078;2023-03-01T14:58:14;5.35;;;2.30;;
76894;SDS011;65855;42.030;13.078;2023-03-01T15:00:45;5.45;;;2.10;;
76894;SDS011;65855;42.030;13.078;2023-03-01T15:03:13;5.30;;;2.10;;
76894;SDS011;65855;42.030;13.078;2023-03-01T15:05:39;4.93;;;1.95;;
76894;SDS011;65855;42.030;13.078;2023-03-01T15:08:05;4.32;;;2.13;;
76894;SDS011;65855;42.030;13.078;2023-03-01T15:10:32;4.43;;;1.92;;
76894;SDS011;65855;42.030;13.078;2023-03-01T15:13:14;3.78;;;1.40;;
76894;SDS011;65855;42.030;13.078;2023-03-01T15:15:45;4.28;;;1.48;;
76894;SDS011;65855;42.030;13.078;2023-03-01T15:18:21;3.35;;;1.20;;
76894;SDS011;65855;42.030;13.078;2023-03-01T15:20:48;5.95;;;2.13;;
76894;SDS011;65855;42.030;13.078;2023-03-01T15:23:22;4.82;;;1.75;;
76894;SDS011;65855;42.030;13.078;2023-03-01T15:25:48;5.68;;;2.22;;
76894;SDS011;65855;42.030;13.078;2023-03-01T15:28:22;5.10;;;2.40;;
76894;SDS011;65855;42.030;13.078;2023-03-01T15:30:52;7.13;;;2.97;;
76894;SDS011;65855;42.030;13.078;2023-03-01T15:35:53;5.68;;;2.88;;
76894;SDS011;65855;42.030;13.078;2023-03-01T15:38:32;6.30;;;3.53;;
76894;SDS011;65855;42.030;13.078;2023-03-01T15:40:59;6.80;;;3.30;;
76894;SDS011;65855;42.030;13.078;2023-03-01T15:43:41;6.63;;;2.75;;
76894;SDS011;65855;42.030;13.078;2023-03-01T15:46:17;6.55;;;3.20;;
76894;SDS011;65855;42.030;13.078;2023-03-01T15:48:44;7.05;;;4.03;;
76894;SDS011;65855;42.030;13.078;2023-03-01T15:51:10;10.38;;;6.90;;
76894;SDS011;65855;42.030;13.078;2023-03-01T15:53:37;8.48;;;4.88;;
76894;SDS011;65855;42.030;13.078;2023-03-01T15:56:03;11.13;;;7.15;;
76894;SDS011;65855;42.030;13.078;2023-03-01T15:58:28;9.02;;;4.85;;
76894;SDS011;65855;42.030;13.078;2023-03-01T16:00:53;9.00;;;3.90;;
76894;SDS011;65855;42.030;13.078;2023-03-01T16:03:21;11.90;;;6.45;;
76894;SDS011;65855;42.030;13.078;2023-03-01T16:05:50;8.48;;;3.85;;
76894;SDS011;65855;42.030;13.078;2023-03-01T16:08:16;9.35;;;4.85;;
76894;SDS011;65855;42.030;13.078;2023-03-01T16:10:41;7.45;;;3.33;;
76894;SDS011;65855;42.030;13.078;2023-03-01T16:13:10;7.40;;;2.00;;
76894;SDS011;65855;42.030;13.078;2023-03-01T16:15:35;7.88;;;4.07;;
76894;SDS011;65855;42.030;13.078;2023-03-01T16:18:01;6.85;;;2.78;;
76894;SDS011;65855;42.030;13.078;2023-03-01T16:20:27;5.38;;;2.78;;
76894;SDS011;65855;42.030;13.078;2023-03-01T16:22:53;7.32;;;2.63;;
76894;SDS011;65855;42.030;13.078;2023-03-01T16:25:19;5.78;;;2.03;;
76894;SDS011;65855;42.030;13.078;2023-03-01T16:27:46;5.05;;;1.75;;
76894;SDS011;65855;42.030;13.078;2023-03-01T16:30:12;6.85;;;1.85;;